createdAt,value
2023-09-26T00:00:00.344Z,17.90
2023-09-26T00:02:27.402Z,17.90
2023-09-26T00:04:54.405Z,17.90
2023-09-26T00:07:21.650Z,17.90
2023-09-26T00:09:48.743Z,17.80
2023-09-26T00:12:16.043Z,17.90
2023-09-26T00:14:43.233Z,17.90
2023-09-26T00:17:10.193Z,17.90
2023-09-26T00:19:37.794Z,17.90
2023-09-26T00:22:04.777Z,17.90
2023-09-26T00:24:31.726Z,17.80
2023-09-26T00:26:59.480Z,17.80
2023-09-26T00:29:26.394Z,17.80
2023-09-26T00:31:54.300Z,17.80
2023-09-26T00:34:21.308Z,17.80
2023-09-26T00:36:48.465Z,17.80
2023-09-26T00:39:15.594Z,17.80
2023-09-26T00:41:43.149Z,17.80
2023-09-26T00:44:12.416Z,17.70
2023-09-26T00:46:40.554Z,17.70
2023-09-26T00:49:08.597Z,17.70
2023-09-26T00:51:37.037Z,17.70
2023-09-26T00:54:05.254Z,17.70
2023-09-26T00:56:32.633Z,17.70
2023-09-26T00:58:59.786Z,17.70
2023-09-26T01:01:28.276Z,17.70
2023-09-26T01:03:56.538Z,17.70
2023-09-26T01:06:23.602Z,17.70
2023-09-26T01:08:50.600Z,17.70
2023-09-26T01:11:18.100Z,17.60
2023-09-26T01:13:46.506Z,17.60
2023-09-26T01:16:14.426Z,17.60
2023-09-26T01:18:41.418Z,17.60
2023-09-26T01:21:08.674Z,17.60
2023-09-26T01:23:37.426Z,17.60
2023-09-26T01:26:04.348Z,17.60
2023-09-26T01:28:31.309Z,17.50
2023-09-26T01:30:58.356Z,17.50
2023-09-26T01:33:25.338Z,17.50
2023-09-26T01:35:52.736Z,17.50
2023-09-26T01:38:20.458Z,17.50
2023-09-26T01:40:47.475Z,17.50
2023-09-26T01:43:16.971Z,17.50
2023-09-26T01:45:44.198Z,17.50
2023-09-26T01:48:13.843Z,17.40
2023-09-26T01:50:41.127Z,17.40
2023-09-26T01:53:10.040Z,17.40
2023-09-26T01:55:39.584Z,17.40
2023-09-26T01:58:06.683Z,17.40
2023-09-26T02:00:33.860Z,17.40
2023-09-26T02:03:00.882Z,17.30
2023-09-26T02:05:27.833Z,17.30
2023-09-26T02:07:55.285Z,17.30
2023-09-26T02:10:22.342Z,17.30
2023-09-26T02:12:50.986Z,17.30
2023-09-26T02:15:18.035Z,17.30
2023-09-26T02:17:45.045Z,17.30
2023-09-26T02:20:16.446Z,17.30
2023-09-26T02:22:44.680Z,17.30
2023-09-26T02:25:12.199Z,17.20
2023-09-26T02:27:39.956Z,17.20
2023-09-26T02:30:07.612Z,17.30
2023-09-26T02:32:35.004Z,17.20
2023-09-26T02:35:07.499Z,17.30
2023-09-26T02:37:35.640Z,17.20
2023-09-26T02:40:06.524Z,17.20
2023-09-26T02:42:37.087Z,17.20
2023-09-26T02:45:04.441Z,17.20
2023-09-26T02:47:31.347Z,17.20
2023-09-26T02:49:58.283Z,17.20
2023-09-26T02:52:26.297Z,17.20
2023-09-26T02:54:54.860Z,17.20
2023-09-26T02:57:23.428Z,17.20
2023-09-26T02:59:50.468Z,17.20
2023-09-26T03:02:17.385Z,17.20
2023-09-26T03:04:47.758Z,17.20
2023-09-26T03:07:14.786Z,17.20
2023-09-26T03:09:41.679Z,17.20
2023-09-26T03:12:08.625Z,17.20
2023-09-26T03:14:35.590Z,17.20
2023-09-26T03:17:02.736Z,17.10
2023-09-26T03:19:29.877Z,17.10
2023-09-26T03:21:57.965Z,17.10
2023-09-26T03:24:24.935Z,17.10
2023-09-26T03:26:51.860Z,17.10
2023-09-26T03:29:18.913Z,17.10
2023-09-26T03:31:47.125Z,17.10
2023-09-26T03:34:14.280Z,17.10
2023-09-26T03:36:41.211Z,17.10
2023-09-26T03:39:08.689Z,17.10
2023-09-26T03:41:35.675Z,17.10
2023-09-26T03:44:02.599Z,17.10
2023-09-26T03:46:29.610Z,17.10
2023-09-26T03:48:56.608Z,17.00
2023-09-26T03:51:23.529Z,17.10
2023-09-26T03:53:50.919Z,17.10
2023-09-26T03:56:18.101Z,17.00
2023-09-26T03:58:45.371Z,17.10
2023-09-26T04:01:13.355Z,17.00
2023-09-26T04:03:41.028Z,17.00
2023-09-26T04:06:08.982Z,17.00
2023-09-26T04:08:36.180Z,17.00
2023-09-26T04:11:03.119Z,17.00
2023-09-26T04:13:30.097Z,17.00
2023-09-26T04:16:00.028Z,17.00
2023-09-26T04:18:27.646Z,17.00
2023-09-26T04:20:54.612Z,17.00
2023-09-26T04:23:21.523Z,17.00
2023-09-26T04:25:48.436Z,17.00
2023-09-26T04:28:15.485Z,16.90
2023-09-26T04:30:42.486Z,16.90
2023-09-26T04:33:09.586Z,16.90
2023-09-26T04:35:37.054Z,16.90
2023-09-26T04:38:04.454Z,16.90
2023-09-26T04:40:31.830Z,16.90
2023-09-26T04:43:03.592Z,16.90
2023-09-26T04:45:33.820Z,16.90
2023-09-26T04:48:01.559Z,16.90
2023-09-26T04:50:31.672Z,16.90
2023-09-26T04:52:59.872Z,16.90
2023-09-26T04:55:27.464Z,16.90
2023-09-26T04:57:54.534Z,16.90
2023-09-26T05:00:21.586Z,16.90
2023-09-26T05:02:51.152Z,16.90
2023-09-26T05:05:18.229Z,16.90
2023-09-26T05:07:45.519Z,16.90
2023-09-26T05:10:13.325Z,16.90
2023-09-26T05:12:42.153Z,16.90
2023-09-26T05:15:13.611Z,16.90
2023-09-26T05:17:50.805Z,16.90
2023-09-26T05:20:17.895Z,17.00
2023-09-26T05:22:46.195Z,17.00
2023-09-26T05:25:13.312Z,17.00
2023-09-26T05:27:40.837Z,17.00
2023-09-26T05:30:08.752Z,17.10
2023-09-26T05:32:35.998Z,17.10
2023-09-26T05:35:05.448Z,17.20
2023-09-26T05:37:32.623Z,17.20
2023-09-26T05:40:00.789Z,17.30
2023-09-26T05:42:27.723Z,17.30
2023-09-26T05:44:54.735Z,17.30
2023-09-26T05:47:24.810Z,17.40
2023-09-26T05:49:52.967Z,17.50
2023-09-26T05:52:21.693Z,17.60
2023-09-26T05:54:48.769Z,17.70
2023-09-26T05:57:15.925Z,17.80
2023-09-26T05:59:43.107Z,18.10
2023-09-26T06:02:13.209Z,18.40
2023-09-26T06:04:44.756Z,18.70
2023-09-26T06:07:12.140Z,19.10
2023-09-26T06:09:44.406Z,19.50
2023-09-26T06:12:20.315Z,20.00
2023-09-26T06:14:47.784Z,20.60
2023-09-26T06:17:14.789Z,21.20
2023-09-26T06:19:46.846Z,21.70
2023-09-26T06:22:14.333Z,22.30
2023-09-26T06:24:41.367Z,22.90
2023-09-26T06:27:08.454Z,23.70
2023-09-26T06:29:39.957Z,24.50
2023-09-26T06:32:06.971Z,25.30
2023-09-26T06:34:35.580Z,26.00
2023-09-26T06:37:03.540Z,26.70
2023-09-26T06:39:30.911Z,27.40
2023-09-26T06:41:57.863Z,27.90
2023-09-26T06:44:24.778Z,28.40
2023-09-26T06:46:53.312Z,28.80
2023-09-26T06:49:20.686Z,29.20
2023-09-26T06:51:47.787Z,29.60
2023-09-26T06:54:14.973Z,29.80
2023-09-26T06:56:41.935Z,30.00
2023-09-26T06:59:10.096Z,30.20
2023-09-26T07:01:39.843Z,30.30
2023-09-26T07:04:15.306Z,30.30
2023-09-26T07:06:42.855Z,30.20
2023-09-26T07:09:09.869Z,30.10
2023-09-26T07:11:36.791Z,30.00
2023-09-26T07:14:04.174Z,30.00
2023-09-26T07:16:34.663Z,30.00
2023-09-26T07:19:02.368Z,30.00
2023-09-26T07:21:29.335Z,30.20
2023-09-26T07:23:56.719Z,30.50
2023-09-26T07:26:25.056Z,31.00
2023-09-26T07:28:53.220Z,31.70
2023-09-26T07:31:20.465Z,32.40
2023-09-26T07:33:47.489Z,33.00
2023-09-26T07:36:14.564Z,33.70
2023-09-26T07:38:41.636Z,34.60
2023-09-26T07:41:08.709Z,35.00
2023-09-26T07:43:35.741Z,35.60
2023-09-26T07:46:06.280Z,36.10
2023-09-26T07:48:34.572Z,36.80
2023-09-26T07:51:01.932Z,37.20
2023-09-26T07:53:28.958Z,37.70
2023-09-26T07:55:57.495Z,38.10
2023-09-26T07:58:24.462Z,38.60
2023-09-26T08:00:53.845Z,38.90
2023-09-26T08:03:20.950Z,38.80
2023-09-26T08:05:48.373Z,39.10
2023-09-26T08:08:15.784Z,39.30
2023-09-26T08:10:42.825Z,39.50
2023-09-26T08:13:09.785Z,39.60
2023-09-26T08:15:36.719Z,39.20
2023-09-26T08:18:04.262Z,39.10
2023-09-26T08:20:31.696Z,39.00
2023-09-26T08:22:58.891Z,39.20
2023-09-26T08:25:26.398Z,39.10
2023-09-26T08:27:53.405Z,38.90
2023-09-26T08:30:20.381Z,39.00
2023-09-26T08:32:47.420Z,39.10
2023-09-26T08:35:14.493Z,39.60
2023-09-26T08:37:41.996Z,40.00
2023-09-26T08:40:12.380Z,40.40
2023-09-26T08:42:47.032Z,40.60
2023-09-26T08:45:14.202Z,40.80
2023-09-26T08:47:45.400Z,41.10
2023-09-26T08:50:12.665Z,41.30
2023-09-26T08:52:39.664Z,41.40
2023-09-26T08:55:06.809Z,41.30
2023-09-26T08:57:35.563Z,41.30
2023-09-26T09:00:03.501Z,41.10
2023-09-26T09:02:33.751Z,41.10
2023-09-26T09:05:01.428Z,41.20
2023-09-26T09:07:29.071Z,41.50
2023-09-26T09:10:05.205Z,41.90
2023-09-26T09:12:32.269Z,42.30
2023-09-26T09:14:59.211Z,42.50
2023-09-26T09:17:26.652Z,42.70
2023-09-26T09:19:53.922Z,42.90
2023-09-26T09:22:21.833Z,42.70
2023-09-26T09:24:55.730Z,42.80
2023-09-26T09:27:33.846Z,42.50
2023-09-26T09:30:26.968Z,41.80
2023-09-26T09:32:54.004Z,41.30
2023-09-26T09:35:21.766Z,41.30
2023-09-26T09:37:50.735Z,40.90
2023-09-26T09:40:18.743Z,40.90
2023-09-26T09:42:46.213Z,41.30
2023-09-26T09:45:14.834Z,41.60
2023-09-26T09:47:43.907Z,41.40
2023-09-26T09:50:11.145Z,40.90
2023-09-26T09:52:41.335Z,40.90
2023-09-26T09:55:10.207Z,40.50
2023-09-26T09:57:39.077Z,40.10
2023-09-26T10:00:07.122Z,40.00
2023-09-26T10:02:35.530Z,39.80
2023-09-26T10:05:07.124Z,39.30
2023-09-26T10:07:35.114Z,38.80
2023-09-26T10:10:02.991Z,38.60
2023-09-26T10:12:34.926Z,38.20
2023-09-26T10:15:02.378Z,37.90
2023-09-26T10:17:29.455Z,37.70
2023-09-26T10:20:11.703Z,37.80
2023-09-26T10:22:45.466Z,37.80
2023-09-26T10:25:20.288Z,37.80
2023-09-26T10:27:59.218Z,38.80
2023-09-26T10:30:28.209Z,39.30
2023-09-26T10:32:56.254Z,39.60
2023-09-26T10:35:26.780Z,39.60
2023-09-26T10:38:19.692Z,39.60
2023-09-26T10:40:47.790Z,40.00
2023-09-26T10:45:47.761Z,40.00
2023-09-26T10:48:19.007Z,40.10
2023-09-26T10:50:46.118Z,40.40
2023-09-26T10:53:13.168Z,40.60
2023-09-26T10:55:41.120Z,40.50
2023-09-26T10:58:08.150Z,40.30
2023-09-26T11:00:35.238Z,40.50
2023-09-26T11:05:49.468Z,41.40
2023-09-26T11:08:21.484Z,41.00
2023-09-26T11:10:51.369Z,40.20
2023-09-26T11:13:18.620Z,39.90
2023-09-26T11:15:48.553Z,39.60
2023-09-26T11:18:15.607Z,39.50
2023-09-26T11:20:50.873Z,39.70
2023-09-26T11:23:35.996Z,39.40
2023-09-26T11:26:05.083Z,38.90
2023-09-26T11:28:32.359Z,38.90
2023-09-26T11:30:59.925Z,39.20
2023-09-26T11:33:26.851Z,39.80
2023-09-26T11:35:54.598Z,40.50
2023-09-26T11:38:21.539Z,40.40
2023-09-26T11:40:48.495Z,40.20
2023-09-26T11:43:15.456Z,39.60
2023-09-26T11:45:42.447Z,39.10
2023-09-26T11:48:09.424Z,37.00
2023-09-26T11:50:41.097Z,35.00
2023-09-26T11:53:08.513Z,33.30
2023-09-26T11:55:37.051Z,32.20
2023-09-26T11:58:04.300Z,31.60
2023-09-26T12:00:31.439Z,31.00
2023-09-26T12:02:59.043Z,30.60
2023-09-26T12:05:26.109Z,30.40
2023-09-26T12:07:53.200Z,30.40
2023-09-26T12:10:20.937Z,30.40
2023-09-26T12:12:48.055Z,30.40
2023-09-26T12:15:19.374Z,30.30
2023-09-26T12:17:46.447Z,30.20
2023-09-26T12:20:14.777Z,30.00
2023-09-26T12:22:41.947Z,29.90
2023-09-26T12:25:08.892Z,29.80
2023-09-26T12:27:35.797Z,29.80
2023-09-26T12:30:02.673Z,29.80
2023-09-26T12:32:29.650Z,29.60
2023-09-26T12:34:56.756Z,29.60
2023-09-26T12:37:24.058Z,29.50
2023-09-26T12:39:51.077Z,29.50
2023-09-26T12:42:17.956Z,29.50
2023-09-26T12:44:45.114Z,29.70
2023-09-26T12:47:12.064Z,29.80
2023-09-26T12:49:41.076Z,29.90
2023-09-26T12:52:08.160Z,30.20
2023-09-26T12:54:35.017Z,30.60
2023-09-26T12:57:03.579Z,31.00
2023-09-26T12:59:30.517Z,30.90
2023-09-26T13:01:57.469Z,30.70
2023-09-26T13:04:24.594Z,30.70
2023-09-26T13:06:51.559Z,30.90
2023-09-26T13:09:18.469Z,31.10
2023-09-26T13:11:45.326Z,31.30
2023-09-26T13:14:12.235Z,31.40
2023-09-26T13:16:39.691Z,31.60
2023-09-26T13:19:06.563Z,31.70
2023-09-26T13:21:33.914Z,31.50
2023-09-26T13:24:01.007Z,30.90
2023-09-26T13:26:29.499Z,30.50
2023-09-26T13:28:57.470Z,30.20
2023-09-26T13:31:24.379Z,30.00
2023-09-26T13:33:51.374Z,29.90
2023-09-26T13:36:18.212Z,29.80
2023-09-26T13:38:45.088Z,29.80
2023-09-26T13:41:12.129Z,29.70
2023-09-26T13:43:39.036Z,29.70
2023-09-26T13:46:06.128Z,29.70
2023-09-26T13:48:33.341Z,29.50
2023-09-26T13:51:01.131Z,29.60
2023-09-26T13:53:28.960Z,29.70
2023-09-26T13:55:56.153Z,29.90
2023-09-26T13:58:23.666Z,29.90
2023-09-26T14:00:50.567Z,29.90
2023-09-26T14:03:17.522Z,29.80
2023-09-26T14:05:44.647Z,29.70
2023-09-26T14:08:11.677Z,29.70
2023-09-26T14:10:39.489Z,29.50
2023-09-26T14:13:06.770Z,29.30
2023-09-26T14:15:33.760Z,29.40
2023-09-26T14:18:00.810Z,29.40
2023-09-26T14:20:27.952Z,29.30
2023-09-26T14:22:56.081Z,29.20
2023-09-26T14:25:23.051Z,29.10
2023-09-26T14:27:50.904Z,29.10
2023-09-26T14:30:18.370Z,29.40
2023-09-26T14:32:48.267Z,30.00
2023-09-26T14:35:15.266Z,30.60
2023-09-26T14:37:42.222Z,31.00
2023-09-26T14:40:11.776Z,30.90
2023-09-26T14:42:38.721Z,31.00
2023-09-26T14:45:05.829Z,31.30
2023-09-26T14:47:32.973Z,31.40
2023-09-26T14:49:59.957Z,31.30
2023-09-26T14:52:26.967Z,31.40
2023-09-26T14:54:53.835Z,31.50
2023-09-26T14:57:20.687Z,31.70
2023-09-26T14:59:47.541Z,32.10
2023-09-26T15:02:14.579Z,32.40
2023-09-26T15:04:41.783Z,32.60
2023-09-26T15:07:08.785Z,32.70
2023-09-26T15:09:35.652Z,32.40
2023-09-26T15:12:02.512Z,32.10
2023-09-26T15:14:29.599Z,31.90
2023-09-26T15:16:56.725Z,32.00
2023-09-26T15:19:23.621Z,31.90
2023-09-26T15:21:50.532Z,32.00
2023-09-26T15:24:17.395Z,31.90
2023-09-26T15:26:44.298Z,31.80
2023-09-26T15:29:11.435Z,31.70
2023-09-26T15:31:38.515Z,31.70
2023-09-26T15:34:05.443Z,31.80
2023-09-26T15:36:32.322Z,31.90
2023-09-26T15:38:59.211Z,32.00
2023-09-26T15:41:26.145Z,31.90
2023-09-26T15:43:53.271Z,31.70
2023-09-26T15:46:22.735Z,31.40
2023-09-26T15:48:49.863Z,31.00
2023-09-26T15:51:17.233Z,30.50
2023-09-26T15:53:45.008Z,30.10
2023-09-26T15:56:13.204Z,29.70
2023-09-26T15:58:40.822Z,29.40
2023-09-26T16:01:08.228Z,29.10
2023-09-26T16:03:35.306Z,28.70
2023-09-26T16:06:02.558Z,28.40
2023-09-26T16:08:29.867Z,28.00
2023-09-26T16:10:56.819Z,27.70
2023-09-26T16:13:23.807Z,27.50
2023-09-26T16:15:50.701Z,27.30
2023-09-26T16:18:17.577Z,27.10
2023-09-26T16:20:44.583Z,26.90
2023-09-26T16:23:11.764Z,26.90
2023-09-26T16:25:39.786Z,26.70
2023-09-26T16:28:07.802Z,26.50
2023-09-26T16:30:38.002Z,26.40
2023-09-26T16:33:04.959Z,26.30
2023-09-26T16:35:31.897Z,26.20
2023-09-26T16:37:58.795Z,26.10
2023-09-26T16:40:25.842Z,26.00
2023-09-26T16:42:52.793Z,25.90
2023-09-26T16:45:19.692Z,25.80
2023-09-26T16:47:47.651Z,25.60
2023-09-26T16:50:14.956Z,25.50
2023-09-26T16:52:42.151Z,25.40
2023-09-26T16:55:09.339Z,25.30
2023-09-26T16:57:37.201Z,25.10
2023-09-26T17:00:05.896Z,25.10
2023-09-26T17:02:33.306Z,24.80
2023-09-26T17:05:00.352Z,24.70
2023-09-26T17:07:27.384Z,24.60
2023-09-26T17:09:54.293Z,24.50
2023-09-26T17:12:22.538Z,24.40
2023-09-26T17:14:50.200Z,24.30
2023-09-26T17:17:17.225Z,24.20
2023-09-26T17:19:44.575Z,24.10
2023-09-26T17:22:12.078Z,24.00
2023-09-26T17:24:39.737Z,23.90
2023-09-26T17:27:07.384Z,23.70
2023-09-26T17:29:34.489Z,23.60
2023-09-26T17:32:01.710Z,23.50
2023-09-26T17:34:28.773Z,23.40
2023-09-26T17:36:55.956Z,23.40
2023-09-26T17:39:25.137Z,23.30
2023-09-26T17:41:52.366Z,23.20
2023-09-26T17:44:19.814Z,23.20
2023-09-26T17:46:48.211Z,23.10
2023-09-26T17:49:15.230Z,23.00
2023-09-26T17:51:42.236Z,23.00
2023-09-26T17:54:09.234Z,22.90
2023-09-26T17:56:36.493Z,22.80
2023-09-26T17:59:03.689Z,22.80
2023-09-26T18:01:30.910Z,22.70
2023-09-26T18:03:58.022Z,22.60
2023-09-26T18:06:25.027Z,22.60
2023-09-26T18:08:53.847Z,22.50
2023-09-26T18:11:20.967Z,22.50
2023-09-26T18:13:48.127Z,22.40
2023-09-26T18:16:15.987Z,22.40
2023-09-26T18:18:42.962Z,22.30
2023-09-26T18:21:09.912Z,22.30
2023-09-26T18:23:36.838Z,22.20
2023-09-26T18:26:04.574Z,22.20
2023-09-26T18:28:32.851Z,22.20
2023-09-26T18:31:02.102Z,22.10
2023-09-26T18:33:29.245Z,22.10
2023-09-26T18:35:56.122Z,22.10
2023-09-26T18:38:23.096Z,22.00
2023-09-26T18:40:52.058Z,22.00
2023-09-26T18:43:19.099Z,22.00
2023-09-26T18:45:46.800Z,21.90
2023-09-26T18:48:13.795Z,21.90
2023-09-26T18:50:40.734Z,21.90
2023-09-26T18:53:07.813Z,21.80
2023-09-26T18:55:34.801Z,21.80
2023-09-26T18:58:01.771Z,21.80
2023-09-26T19:00:29.134Z,21.80
2023-09-26T19:02:57.818Z,21.80
2023-09-26T19:05:26.081Z,21.80
2023-09-26T19:07:53.395Z,21.80
2023-09-26T19:10:21.180Z,21.70
2023-09-26T19:12:48.308Z,21.70
2023-09-26T19:15:15.326Z,21.70
2023-09-26T19:17:43.039Z,21.60
2023-09-26T19:20:11.017Z,21.60
2023-09-26T19:22:38.055Z,21.60
2023-09-26T19:25:06.068Z,21.60
2023-09-26T19:27:33.074Z,21.50
2023-09-26T19:30:00.255Z,21.50
2023-09-26T19:32:27.370Z,21.40
2023-09-26T19:34:54.397Z,21.40
2023-09-26T19:37:21.364Z,21.40
2023-09-26T19:39:48.549Z,21.30
2023-09-26T19:42:15.419Z,21.30
2023-09-26T19:44:42.407Z,21.30
2023-09-26T19:47:09.431Z,21.30
2023-09-26T19:49:39.621Z,21.20
2023-09-26T19:52:06.950Z,21.20
2023-09-26T19:54:33.966Z,21.20
2023-09-26T19:57:00.868Z,21.10
2023-09-26T19:59:28.286Z,21.10
2023-09-26T20:01:56.027Z,21.00
2023-09-26T20:04:23.207Z,21.00
2023-09-26T20:06:50.681Z,21.00
2023-09-26T20:09:17.587Z,21.00
2023-09-26T20:11:44.536Z,20.90
2023-09-26T20:14:11.594Z,20.90
2023-09-26T20:16:38.728Z,20.90
2023-09-26T20:19:05.941Z,20.90
2023-09-26T20:21:32.774Z,20.90
2023-09-26T20:23:59.914Z,20.90
2023-09-26T20:26:26.897Z,20.90
2023-09-26T20:28:54.059Z,20.90
2023-09-26T20:31:21.297Z,20.90
2023-09-26T20:33:48.212Z,20.90
2023-09-26T20:36:15.274Z,20.90
2023-09-26T20:38:42.519Z,20.90
2023-09-26T20:41:10.997Z,20.90
2023-09-26T20:43:39.311Z,20.90
2023-09-26T20:46:06.800Z,20.90
2023-09-26T20:48:33.796Z,20.90
2023-09-26T20:51:09.599Z,20.90
2023-09-26T20:53:36.599Z,20.90
2023-09-26T20:56:07.691Z,20.90
2023-09-26T20:58:35.075Z,20.80
2023-09-26T21:01:11.591Z,20.90
2023-09-26T21:03:38.868Z,20.80
2023-09-26T21:06:09.463Z,20.80
2023-09-26T21:08:36.379Z,20.80
2023-09-26T21:11:03.755Z,20.80
2023-09-26T21:13:31.229Z,20.80
2023-09-26T21:16:07.424Z,20.80
2023-09-26T21:18:34.408Z,20.70
2023-09-26T21:21:01.846Z,20.70
2023-09-26T21:23:28.837Z,20.70
2023-09-26T21:25:55.788Z,20.70
2023-09-26T21:28:22.790Z,20.70
2023-09-26T21:30:49.750Z,20.70
2023-09-26T21:33:16.972Z,20.70
2023-09-26T21:35:44.116Z,20.70
2023-09-26T21:38:11.519Z,20.70
2023-09-26T21:40:38.749Z,20.70
2023-09-26T21:43:05.652Z,20.70
2023-09-26T21:45:32.553Z,20.60
2023-09-26T21:47:59.589Z,20.60
2023-09-26T21:50:27.229Z,20.60
2023-09-26T21:52:55.406Z,20.50
2023-09-26T21:55:22.350Z,20.50
2023-09-26T21:57:49.223Z,20.40
2023-09-26T22:00:24.236Z,20.30
2023-09-26T22:02:55.095Z,20.30
2023-09-26T22:05:23.123Z,20.30
2023-09-26T22:07:50.810Z,20.30
2023-09-26T22:10:17.797Z,20.20
2023-09-26T22:12:44.927Z,20.20
2023-09-26T22:15:11.902Z,20.20
2023-09-26T22:17:42.100Z,20.10
2023-09-26T22:20:10.019Z,20.10
2023-09-26T22:22:37.027Z,20.10
2023-09-26T22:25:04.596Z,20.10
2023-09-26T22:27:31.659Z,20.10
2023-09-26T22:30:00.435Z,20.00
2023-09-26T22:32:27.802Z,20.00
2023-09-26T22:34:55.079Z,20.10
2023-09-26T22:37:22.300Z,20.00
2023-09-26T22:39:49.742Z,20.00
2023-09-26T22:42:17.149Z,19.90
2023-09-26T22:44:45.501Z,19.90
2023-09-26T22:47:15.638Z,19.90
2023-09-26T22:49:43.176Z,19.90
2023-09-26T22:52:10.389Z,19.90
2023-09-26T22:54:38.047Z,19.80
2023-09-26T22:57:05.080Z,19.80
2023-09-26T22:59:32.141Z,19.70
2023-09-26T23:01:59.270Z,19.70
2023-09-26T23:04:26.212Z,19.70
2023-09-26T23:06:53.165Z,19.60
2023-09-26T23:09:20.078Z,19.70
2023-09-26T23:11:47.108Z,19.70
2023-09-26T23:14:14.077Z,19.70
2023-09-26T23:16:41.274Z,19.70
2023-09-26T23:19:08.341Z,19.70
2023-09-26T23:21:35.196Z,19.70
2023-09-26T23:24:02.988Z,19.70
2023-09-26T23:26:29.868Z,19.60
2023-09-26T23:28:57.337Z,19.60
2023-09-26T23:31:24.620Z,19.60
2023-09-26T23:33:51.740Z,19.60
2023-09-26T23:36:19.221Z,19.60
2023-09-26T23:38:46.211Z,19.50
2023-09-26T23:41:13.152Z,19.50
2023-09-26T23:43:40.090Z,19.60
2023-09-26T23:46:07.047Z,19.50
2023-09-26T23:48:33.984Z,19.60
2023-09-26T23:51:00.951Z,19.60
2023-09-26T23:53:27.888Z,19.60
2023-09-26T23:55:54.933Z,19.60
2023-09-26T23:58:21.835Z,19.70
